Time;durP1;ratioP1;P1;durP2;ratioP2;P2;SDS_P1;SDS_P2;PMS_P1;PMS_P2;Temp;Humidity;BMP_temperature;BMP_pressure;BME280_temperature;BME280_humidity;BME280_pressure;Samples;Min_cycle;Max_cycle;Signal;HPM_P1;HPM_P2
2023/11/24 00:01:35;;;;;;;;;;;;;;;16.73;46.98;100308.09;4985971;28;1266;-56
2023/11/24 00:04:01;;;;;;;;;;;;;;;16.49;46.31;100306.06;4983814;28;1068;-56
2023/11/24 00:06:27;;;;;;;;;;;;;;;16.80;47.10;100297.63;4979125;28;1105;-57
2023/11/24 00:08:52;;;;;;;;;;;;;;;17.54;47.44;100293.94;4998002;28;1911;-57
2023/11/24 00:11:18;;;;;;;;;;;;;;;16.87;47.79;100311.03;4998074;28;1122;-57
2023/11/24 00:13:43;;;;;;;;;;;;;;;16.57;46.98;100296.44;4985525;28;1115;-57
2023/11/24 00:16:09;;;;;;;;;;;;;;;16.45;46.59;100287.72;4985777;28;1097;-57
2023/11/24 00:18:36;;;;;;;;;;;;;;;17.29;47.58;100293.09;4985133;28;1121;-55
2023/11/24 00:21:06;;;;;;;;;;;;;;;16.63;47.88;100292.53;4997725;28;1040;-55
2023/11/24 00:23:33;;;;;;;;;;;;;;;16.53;46.58;100287.94;4985449;28;1143;-55
2023/11/24 00:25:59;;;;;;;;;;;;;;;17.37;47.40;100272.41;4984564;28;1079;-55
2023/11/24 00:28:24;;;;;;;;;;;;;;;17.12;47.69;100266.06;4993550;28;1915;-56
2023/11/24 00:30:50;;;;;;;;;;;;;;;16.73;47.58;100265.00;4996854;28;1012;-56
2023/11/24 00:33:18;;;;;;;;;;;;;;;16.53;46.73;100256.94;4984300;28;1146;-56
2023/11/24 00:35:45;;;;;;;;;;;;;;;16.98;47.77;100260.41;4984971;28;1183;-56
2023/11/24 00:38:11;;;;;;;;;;;;;;;16.91;47.98;100246.22;4989611;28;1095;-56
2023/11/24 00:40:40;;;;;;;;;;;;;;;16.64;47.59;100244.75;4989230;28;1128;-56
2023/11/24 00:43:06;;;;;;;;;;;;;;;17.65;47.33;100251.47;4997648;28;1158;-56
2023/11/24 00:45:31;;;;;;;;;;;;;;;16.90;47.59;100253.63;4996787;28;1071;-56
2023/11/24 00:47:57;;;;;;;;;;;;;;;16.56;47.04;100248.13;4984802;28;1902;-56
2023/11/24 00:50:23;;;;;;;;;;;;;;;17.10;47.84;100240.81;4997229;28;1020;-57
2023/11/24 00:52:49;;;;;;;;;;;;;;;16.94;47.87;100237.38;4992083;28;1136;-57
2023/11/24 00:55:15;;;;;;;;;;;;;;;16.60;47.30;100250.00;4991037;28;1077;-57
2023/11/24 00:57:40;;;;;;;;;;;;;;;16.51;46.26;100239.91;4984829;28;1124;-57
2023/11/24 01:00:08;;;;;;;;;;;;;;;17.01;47.49;100226.06;4983532;28;1400;-56
2023/11/24 01:02:36;;;;;;;;;;;;;;;17.07;47.73;100220.25;4989346;28;1130;-56
2023/11/24 01:05:02;;;;;;;;;;;;;;;16.66;47.36;100220.59;4983202;28;1057;-56
2023/11/24 01:07:28;;;;;;;;;;;;;;;17.00;47.95;100222.50;4995699;28;1902;-56
2023/11/24 01:09:53;;;;;;;;;;;;;;;16.97;47.76;100212.13;4983831;28;1091;-56
2023/11/24 01:12:19;;;;;;;;;;;;;;;16.68;47.18;100207.41;4978164;28;1073;-57
2023/11/24 01:14:45;;;;;;;;;;;;;;;17.75;47.21;100201.88;4990279;28;1172;-57
2023/11/24 01:17:10;;;;;;;;;;;;;;;17.08;47.71;100194.41;4978654;28;1080;-56
2023/11/24 01:19:37;;;;;;;;;;;;;;;16.72;47.17;100186.50;4990200;28;1125;-56
2023/11/24 01:22:03;;;;;;;;;;;;;;;16.52;46.63;100187.50;4984761;28;1064;-56
2023/11/24 01:24:29;;;;;;;;;;;;;;;17.72;47.16;100169.44;4984359;28;1064;-56
2023/11/24 01:26:55;;;;;;;;;;;;;;;16.88;48.30;100172.63;4990160;28;1906;-56
2023/11/24 01:29:20;;;;;;;;;;;;;;;16.68;47.32;100162.66;4990327;28;1096;-56
2023/11/24 01:31:46;;;;;;;;;;;;;;;16.54;46.47;100157.84;4995445;28;1048;-56
2023/11/24 01:34:14;;;;;;;;;;;;;;;16.97;47.57;100161.84;4996716;28;1092;-56
2023/11/24 01:36:40;;;;;;;;;;;;;;;17.54;47.39;100157.31;4984678;28;1235;-56
2023/11/24 01:39:09;;;;;;;;;;;;;;;16.88;47.93;100156.13;4984206;28;1326;-58
2023/11/24 01:41:35;;;;;;;;;;;;;;;16.62;47.10;100152.81;4988792;28;1118;-58
2023/11/24 01:44:01;;;;;;;;;;;;;;;16.59;47.24;100140.50;4990502;28;1057;-57
2023/11/24 01:46:26;;;;;;;;;;;;;;;17.33;47.83;100132.00;4977601;28;1120;-60
2023/11/24 01:48:52;;;;;;;;;;;;;;;16.71;47.80;100126.41;4990152;28;1989;-57
2023/11/24 01:51:17;;;;;;;;;;;;;;;16.89;47.97;100125.66;4985456;28;1073;-60
2023/11/24 01:53:43;;;;;;;;;;;;;;;17.24;48.02;100115.38;5005055;28;1083;-59
2023/11/24 01:56:08;;;;;;;;;;;;;;;16.81;47.58;100117.22;4989068;28;1067;-63
2023/11/24 01:58:34;;;;;;;;;;;;;;;16.60;47.10;100120.97;4992475;28;1274;-58
2023/11/24 02:01:00;;;;;;;;;;;;;;;16.50;46.79;100117.53;4992152;28;1187;-58
2023/11/24 02:03:25;;;;;;;;;;;;;;;17.44;47.61;100108.78;4976245;28;1219;-55
2023/11/24 02:05:51;;;;;;;;;;;;;;;16.80;47.95;100093.63;4993068;28;1194;-59
2023/11/24 02:08:17;;;;;;;;;;;;;;;16.54;47.15;100102.94;4990203;28;1978;-59
2023/11/24 02:10:43;;;;;;;;;;;;;;;16.39;46.31;100084.69;4977115;28;1087;-57
2023/11/24 02:13:08;;;;;;;;;;;;;;;16.68;47.04;100081.13;4989935;28;1155;-58
2023/11/24 02:15:35;;;;;;;;;;;;;;;16.90;47.86;100077.88;4976013;28;1096;-57
2023/11/24 02:18:01;;;;;;;;;;;;;;;16.50;47.45;100074.44;5000251;28;1580;-57
2023/11/24 02:20:27;;;;;;;;;;;;;;;16.47;47.15;100068.72;4999179;28;1176;-54
2023/11/24 02:22:52;;;;;;;;;;;;;;;17.53;47.12;100064.13;4982566;28;1220;-56
2023/11/24 02:25:18;;;;;;;;;;;;;;;16.72;47.97;100062.16;4995199;28;881;-58
2023/11/24 02:27:44;;;;;;;;;;;;;;;16.50;47.10;100047.00;4997790;28;1977;-57
2023/11/24 02:30:11;;;;;;;;;;;;;;;16.30;46.53;100050.78;4997421;28;850;-61
2023/11/24 02:32:36;;;;;;;;;;;;;;;16.93;47.24;100033.34;4984555;28;1185;-59
2023/11/24 02:35:04;;;;;;;;;;;;;;;16.92;47.90;100030.91;5003316;28;1338;-55
2023/11/24 02:37:31;;;;;;;;;;;;;;;16.51;47.80;100021.19;4985502;28;1176;-59
2023/11/24 02:39:57;;;;;;;;;;;;;;;17.76;47.09;100023.94;4998614;28;1188;-57
2023/11/24 02:42:22;;;;;;;;;;;;;;;16.92;47.96;100019.91;4993698;28;1032;-52
2023/11/24 02:44:48;;;;;;;;;;;;;;;16.68;47.13;100026.22;4988531;28;1179;-55
2023/11/24 02:47:13;;;;;;;;;;;;;;;16.56;46.80;100017.56;4985128;28;1886;-51
2023/11/24 02:49:39;;;;;;;;;;;;;;;17.18;47.65;100017.66;4980379;28;1080;-57
2023/11/24 02:52:05;;;;;;;;;;;;;;;16.58;47.74;100020.84;5008020;28;1091;-54
2023/11/24 02:54:30;;;;;;;;;;;;;;;16.48;47.05;100013.56;4997815;28;2230;-53
2023/11/24 02:56:56;;;;;;;;;;;;;;;16.80;47.49;100008.50;4993177;28;1171;-56
2023/11/24 02:59:21;;;;;;;;;;;;;;;17.20;47.53;100001.69;4979149;28;1539;-54
2023/11/24 03:01:47;;;;;;;;;;;;;;;16.65;47.55;99998.53;4980439;28;1124;-52
2023/11/24 03:04:12;;;;;;;;;;;;;;;16.52;46.50;99994.56;4992094;28;1012;-54
2023/11/24 03:06:42;;;;;;;;;;;;;;;16.80;47.25;100001.06;5005926;28;1159;-53
2023/11/24 03:09:09;;;;;;;;;;;;;;;17.25;47.71;99992.53;4998000;28;1898;-56
2023/11/24 03:11:38;;;;;;;;;;;;;;;16.67;47.57;99990.81;4985912;28;1155;-55
2023/11/24 03:14:04;;;;;;;;;;;;;;;16.81;47.68;99993.69;4989941;28;1594;-57
2023/11/24 03:16:31;;;;;;;;;;;;;;;17.60;47.18;99971.94;4974489;28;1092;-56
2023/11/24 03:18:56;;;;;;;;;;;;;;;16.85;47.88;99973.56;4986303;28;827;-57
2023/11/24 03:21:22;;;;;;;;;;;;;;;16.70;46.84;99962.78;4992732;28;1192;-60
2023/11/24 03:23:48;;;;;;;;;;;;;;;17.51;47.38;99950.94;5002981;28;1449;-56
2023/11/24 03:26:13;;;;;;;;;;;;;;;17.02;47.82;99953.84;4985798;28;1163;-59
2023/11/24 03:28:39;;;;;;;;;;;;;;;16.69;47.41;99941.94;4990175;28;1902;-61
2023/11/24 03:31:05;;;;;;;;;;;;;;;17.07;47.76;99934.56;4983807;28;1319;-55
2023/11/24 03:33:31;;;;;;;;;;;;;;;17.18;47.58;99937.16;4973303;28;1373;-59
2023/11/24 03:35:56;;;;;;;;;;;;;;;16.94;48.00;99929.81;4983150;28;914;-59
2023/11/24 03:38:22;;;;;;;;;;;;;;;18.19;46.52;99940.41;4984192;28;1220;-60
2023/11/24 03:40:51;;;;;;;;;;;;;;;17.26;47.53;99936.47;4984252;28;1412;-57
2023/11/24 03:43:17;;;;;;;;;;;;;;;16.84;47.10;99936.22;4988658;28;1066;-57
2023/11/24 03:45:43;;;;;;;;;;;;;;;16.67;46.65;99933.19;4988859;28;1254;-58
2023/11/24 03:48:09;;;;;;;;;;;;;;;16.62;45.90;99925.84;4998494;28;1906;-56
2023/11/24 03:50:35;;;;;;;;;;;;;;;16.40;45.47;99932.69;4983106;28;1084;-53
2023/11/24 03:53:00;;;;;;;;;;;;;;;16.96;47.03;99927.59;4978898;28;1038;-55
2023/11/24 03:55:26;;;;;;;;;;;;;;;17.12;47.84;99927.38;4981437;28;1161;-56
2023/11/24 03:57:51;;;;;;;;;;;;;;;16.72;47.52;99922.94;4988617;28;1640;-56
2023/11/24 04:00:17;;;;;;;;;;;;;;;16.50;46.82;99908.97;4991056;28;1049;-57
2023/11/24 04:02:42;;;;;;;;;;;;;;;17.04;47.33;99915.94;4978455;28;1204;-57
2023/11/24 04:05:09;;;;;;;;;;;;;;;17.30;47.82;99915.53;5006696;28;1736;-61
2023/11/24 04:07:34;;;;;;;;;;;;;;;16.80;47.69;99912.41;4985505;28;1898;-61
2023/11/24 04:10:00;;;;;;;;;;;;;;;16.76;47.36;99904.78;4979916;28;1076;-60
2023/11/24 04:12:25;;;;;;;;;;;;;;;17.36;47.74;99897.03;4986059;28;1349;-60
2023/11/24 04:14:52;;;;;;;;;;;;;;;16.82;47.81;99900.03;4985263;28;1143;-60
2023/11/24 04:17:18;;;;;;;;;;;;;;;16.72;47.63;99895.50;4981310;28;1151;-64
2023/11/24 04:19:43;;;;;;;;;;;;;;;17.22;47.81;99894.22;4997716;28;873;-63
2023/11/24 04:22:09;;;;;;;;;;;;;;;16.75;47.59;99889.41;4995487;28;1099;-62
2023/11/24 04:24:35;;;;;;;;;;;;;;;16.58;46.65;99886.38;4978692;28;1170;-62
2023/11/24 04:27:01;;;;;;;;;;;;;;;16.40;46.20;99877.81;4994497;28;1906;-59
2023/11/24 04:29:26;;;;;;;;;;;;;;;17.39;47.30;99875.28;4988405;28;1128;-58
2023/11/24 04:31:52;;;;;;;;;;;;;;;16.91;48.07;99880.97;4990930;28;1092;-63
2023/11/24 04:34:18;;;;;;;;;;;;;;;16.58;47.34;99861.66;4978459;28;1084;-57
2023/11/24 04:36:43;;;;;;;;;;;;;;;16.36;46.79;99873.22;4994428;28;1060;-64
2023/11/24 04:39:09;;;;;;;;;;;;;;;16.62;47.14;99867.38;4988500;28;1274;-59
2023/11/24 04:41:34;;;;;;;;;;;;;;;17.70;47.02;99865.69;4993511;28;1253;-60
2023/11/24 04:44:00;;;;;;;;;;;;;;;16.80;47.98;99868.47;4979048;28;1008;-59
2023/11/24 04:46:25;;;;;;;;;;;;;;;16.58;47.24;99862.47;4975064;28;1534;-56
2023/11/24 04:48:51;;;;;;;;;;;;;;;16.48;46.29;99861.78;4969547;28;1950;-60
2023/11/24 04:51:17;;;;;;;;;;;;;;;17.37;47.30;99869.25;4988883;28;1598;-56
2023/11/24 04:53:42;;;;;;;;;;;;;;;16.91;48.19;99854.34;4986579;28;1233;-53
2023/11/24 04:56:09;;;;;;;;;;;;;;;17.00;47.66;99857.22;4980231;28;1613;-59
2023/11/24 04:58:34;;;;;;;;;;;;;;;17.78;47.11;99849.28;4989133;28;973;-58
2023/11/24 05:01:00;;;;;;;;;;;;;;;16.92;47.80;99838.69;4990807;28;991;-55
2023/11/24 05:03:25;;;;;;;;;;;;;;;16.67;47.39;99843.41;4977930;28;1380;-55
2023/11/24 05:05:51;;;;;;;;;;;;;;;16.62;46.31;99842.66;4977698;28;1113;-59
2023/11/24 05:08:16;;;;;;;;;;;;;;;16.39;46.16;99834.19;4977861;28;1909;-57
2023/11/24 05:10:43;;;;;;;;;;;;;;;17.30;47.35;99838.59;4977610;28;1200;-58
2023/11/24 05:13:09;;;;;;;;;;;;;;;16.98;47.99;99826.47;4977280;28;1061;-58
2023/11/24 05:15:34;;;;;;;;;;;;;;;16.63;47.49;99831.38;4990415;28;1132;-61
2023/11/24 05:18:03;;;;;;;;;;;;;;;17.65;47.40;99836.31;4977464;28;1119;-58
2023/11/24 05:20:28;;;;;;;;;;;;;;;17.05;48.16;99826.91;4978881;28;909;-58
2023/11/24 05:22:54;;;;;;;;;;;;;;;16.75;47.31;99823.53;4986469;28;1131;-58
2023/11/24 05:25:19;;;;;;;;;;;;;;;16.51;46.96;99820.03;4983687;28;1079;-58
2023/11/24 05:27:45;;;;;;;;;;;;;;;16.45;46.90;99819.28;4987570;28;1977;-58
2023/11/24 05:30:11;;;;;;;;;;;;;;;17.52;46.95;99824.19;4992724;28;1224;-59
2023/11/24 05:32:37;;;;;;;;;;;;;;;15.28;53.01;99825.81;4978640;28;849;-58
2023/11/24 05:35:03;;;;;;;;;;;;;;;17.48;47.61;99816.88;4979544;28;1072;-59
2023/11/24 05:37:29;;;;;;;;;;;;;;;17.72;46.53;99814.75;4988004;28;1111;-61
2023/11/24 05:39:54;;;;;;;;;;;;;;;16.98;48.13;99810.00;4992451;28;1361;-56
2023/11/24 05:42:20;;;;;;;;;;;;;;;16.67;49.09;99804.97;4995560;28;1140;-59
2023/11/24 05:44:45;;;;;;;;;;;;;;;17.77;46.58;99806.41;4993360;28;1042;-61
2023/11/24 05:47:11;;;;;;;;;;;;;;;17.25;47.57;99801.06;4989762;28;1898;-58
2023/11/24 05:49:40;;;;;;;;;;;;;;;16.80;48.54;99805.34;4984932;28;1045;-60
2023/11/24 05:52:12;;;;;;;;;;;;;;;17.87;46.29;99807.34;4996497;28;1071;-64
2023/11/24 05:54:37;;;;;;;;;;;;;;;17.35;47.34;99802.81;4988211;28;1195;-65
2023/11/24 05:57:03;;;;;;;;;;;;;;;16.91;48.26;99795.84;4996125;28;1080;-61
2023/11/24 05:59:28;;;;;;;;;;;;;;;17.21;47.95;99802.78;4996870;28;1136;-64
2023/11/24 06:01:54;;;;;;;;;;;;;;;17.84;46.25;99800.50;4986515;28;1168;-61
2023/11/24 06:04:20;;;;;;;;;;;;;;;17.07;47.87;99797.22;5000294;28;1033;-61
2023/11/24 06:06:45;;;;;;;;;;;;;;;16.78;48.94;99811.13;4997944;28;1072;-61
2023/11/24 06:09:12;;;;;;;;;;;;;;;17.97;45.89;99809.88;4999776;28;2015;-62
2023/11/24 06:11:37;;;;;;;;;;;;;;;17.09;47.91;99799.69;4986691;28;1421;-58
2023/11/24 06:14:03;;;;;;;;;;;;;;;16.78;48.82;99797.41;4999980;28;1044;-57
2023/11/24 06:16:29;;;;;;;;;;;;;;;17.92;46.46;99797.06;4984349;28;1060;-57
2023/11/24 06:18:55;;;;;;;;;;;;;;;17.26;47.70;99793.59;4988149;28;1195;-58
2023/11/24 06:21:20;;;;;;;;;;;;;;;16.83;48.63;99796.50;4983256;28;1064;-60
2023/11/24 06:23:50;;;;;;;;;;;;;;;18.08;45.96;99788.50;4990796;28;1171;-61
2023/11/24 06:26:16;;;;;;;;;;;;;;;17.27;47.80;99784.25;4983438;28;1124;-57
2023/11/24 06:28:42;;;;;;;;;;;;;;;16.91;48.89;99780.22;4990566;28;1975;-57
2023/11/24 06:31:08;;;;;;;;;;;;;;;18.34;45.60;99785.19;4980761;28;1136;-57
2023/11/24 06:33:33;;;;;;;;;;;;;;;17.40;47.65;99783.47;5004457;28;1353;-58
2023/11/24 06:36:00;;;;;;;;;;;;;;;17.12;48.68;99777.09;4999485;28;1126;-57
2023/11/24 06:38:26;;;;;;;;;;;;;;;17.23;48.69;99784.03;4989786;28;1199;-58
2023/11/24 06:40:51;;;;;;;;;;;;;;;18.05;46.47;99789.13;4992934;28;1179;-58
2023/11/24 06:43:17;;;;;;;;;;;;;;;17.17;48.51;99773.47;4986386;28;1126;-59
2023/11/24 06:45:44;;;;;;;;;;;;;;;16.96;49.12;99776.56;4980446;28;1049;-55
2023/11/24 06:48:10;;;;;;;;;;;;;;;18.22;46.16;99774.72;4979822;28;1903;-58
2023/11/24 06:50:35;;;;;;;;;;;;;;;17.42;47.81;99767.50;4992798;28;1224;-58
2023/11/24 06:53:01;;;;;;;;;;;;;;;17.05;48.66;99766.50;4988712;28;1133;-57
2023/11/24 06:55:26;;;;;;;;;;;;;;;17.27;48.55;99762.28;4997214;28;1055;-58
2023/11/24 06:57:52;;;;;;;;;;;;;;;18.06;46.47;99764.03;4995651;28;1111;-56
2023/11/24 07:00:18;;;;;;;;;;;;;;;17.21;48.71;99755.25;4985867;28;1097;-61
2023/11/24 07:02:44;;;;;;;;;;;;;;;16.89;49.53;99762.41;4998936;28;1043;-56
2023/11/24 07:05:10;;;;;;;;;;;;;;;18.19;46.48;99756.88;4984278;28;1319;-57
2023/11/24 07:07:35;;;;;;;;;;;;;;;17.40;48.33;99752.41;4984226;28;1981;-63
2023/11/24 07:10:00;;;;;;;;;;;;;;;17.27;49.34;99765.03;4986235;28;1475;-59
2023/11/24 07:12:26;;;;;;;;;;;;;;;18.32;47.01;99752.47;4979975;28;1333;-55
2023/11/24 07:14:52;;;;;;;;;;;;;;;18.05;47.66;99748.66;4974192;28;1167;-59
2023/11/24 07:17:17;;;;;;;;;;;;;;;17.32;49.96;99753.13;4990912;28;1226;-62
2023/11/24 07:19:43;;;;;;;;;;;;;;;18.23;47.69;99746.88;4983687;28;1436;-65
2023/11/24 07:22:08;;;;;;;;;;;;;;;18.41;47.56;99747.84;4991967;28;1074;-63
2023/11/24 07:24:38;;;;;;;;;;;;;;;18.39;48.86;99752.03;4982572;28;1040;-60
2023/11/24 07:27:05;;;;;;;;;;;;;;;17.74;50.47;99741.03;4982385;28;1914;-58
2023/11/24 07:29:33;;;;;;;;;;;;;;;15.70;54.21;99739.34;4963430;28;1080;-59
2023/11/24 07:32:03;;;;;;;;;;;;;;;14.91;54.82;99738.81;5005060;28;1061;-64
2023/11/24 07:34:31;;;;;;;;;;;;;;;15.78;57.81;99740.63;4985847;28;1230;-63
2023/11/24 07:36:57;;;;;;;;;;;;;;;17.26;54.15;99735.91;4979642;28;1564;-60
2023/11/24 07:39:22;;;;;;;;;;;;;;;17.99;52.60;99736.13;4983801;28;1204;-61
2023/11/24 07:41:48;;;;;;;;;;;;;;;18.41;51.93;99717.59;4994801;28;1136;-60
2023/11/24 07:44:14;;;;;;;;;;;;;;;18.70;51.61;99718.25;4983472;28;1365;-58
2023/11/24 07:46:39;;;;;;;;;;;;;;;17.07;54.15;99720.31;4984890;28;1305;-59
2023/11/24 07:49:06;;;;;;;;;;;;;;;15.55;55.78;99714.88;4984606;28;2000;-60
2023/11/24 07:51:31;;;;;;;;;;;;;;;15.22;60.12;99711.94;4978114;28;1284;-56
2023/11/24 07:53:57;;;;;;;;;;;;;;;16.85;57.88;99717.41;4980044;28;1286;-58
2023/11/24 07:56:23;;;;;;;;;;;;;;;17.87;54.62;99719.31;4985426;28;1304;-56
2023/11/24 07:58:49;;;;;;;;;;;;;;;18.38;53.04;99715.44;4975348;28;1370;-55
2023/11/24 08:01:15;;;;;;;;;;;;;;;18.71;52.20;99720.69;4980815;28;1525;-59
2023/11/24 08:03:40;;;;;;;;;;;;;;;17.00;54.48;99708.94;4975118;28;1256;-62
2023/11/24 08:06:07;;;;;;;;;;;;;;;15.52;56.32;99715.47;4971755;28;1343;-60
2023/11/24 08:08:33;;;;;;;;;;;;;;;14.78;56.53;99701.97;4984096;28;1903;-60
2023/11/24 08:10:58;;;;;;;;;;;;;;;16.13;60.81;99702.06;4997782;28;1060;-62
2023/11/24 08:13:24;;;;;;;;;;;;;;;17.44;56.54;99699.28;4993372;28;1355;-55
2023/11/24 08:15:49;;;;;;;;;;;;;;;16.89;56.08;99699.25;4970960;28;1335;-56
2023/11/24 08:18:15;;;;;;;;;;;;;;;15.62;56.67;99698.88;4976551;28;1132;-50
2023/11/24 08:20:42;;;;;;;;;;;;;;;15.16;56.09;99707.63;4982638;28;1321;-58
2023/11/24 08:23:10;;;;;;;;;;;;;;;14.55;56.25;99699.69;4977589;28;1272;-57
2023/11/24 08:25:36;;;;;;;;;;;;;;;14.18;58.84;99692.00;4975904;28;1525;-58
2023/11/24 08:28:04;;;;;;;;;;;;;;;15.78;61.73;99679.50;4981472;28;2004;-58
2023/11/24 08:30:32;;;;;;;;;;;;;;;16.91;59.16;99684.09;4979273;28;1311;-59
2023/11/24 08:32:57;;;;;;;;;;;;;;;17.65;56.28;99679.63;4975235;28;1151;-61
2023/11/24 08:35:25;;;;;;;;;;;;;;;16.88;56.17;99672.88;4981370;28;1476;-52
2023/11/24 08:37:50;;;;;;;;;;;;;;;15.53;57.27;99662.28;4973756;28;1092;-57
2023/11/24 08:40:16;;;;;;;;;;;;;;;15.21;56.70;99650.06;4991711;28;1245;-57
2023/11/24 08:42:43;;;;;;;;;;;;;;;14.99;56.28;99642.38;4978661;28;1048;-53
2023/11/24 08:45:09;;;;;;;;;;;;;;;14.89;55.84;99643.31;4992104;28;1056;-61
2023/11/24 08:47:35;;;;;;;;;;;;;;;14.69;55.20;99647.88;4984169;28;1902;-49
2023/11/24 08:50:00;;;;;;;;;;;;;;;14.60;55.33;99641.34;4975812;28;1386;-55
2023/11/24 08:52:26;;;;;;;;;;;;;;;14.56;54.95;99632.09;4991377;28;1101;-49
2023/11/24 08:54:51;;;;;;;;;;;;;;;14.48;54.83;99632.72;4990964;28;1080;-53
2023/11/24 08:57:17;;;;;;;;;;;;;;;14.41;54.75;99629.50;4983989;28;1168;-57
2023/11/24 08:59:43;;;;;;;;;;;;;;;14.29;54.64;99629.88;4982629;28;1325;-52
2023/11/24 09:02:08;;;;;;;;;;;;;;;14.16;54.15;99625.88;4994787;28;1334;-54
2023/11/24 09:04:34;;;;;;;;;;;;;;;14.05;53.58;99611.47;4980319;28;1108;-52
2023/11/24 09:06:59;;;;;;;;;;;;;;;13.90;53.54;99606.91;4978568;28;1998;-52
2023/11/24 09:09:25;;;;;;;;;;;;;;;13.77;53.22;99597.44;4989618;28;1038;-56
2023/11/24 09:11:50;;;;;;;;;;;;;;;13.67;53.32;99595.59;4985676;28;1160;-50
2023/11/24 09:14:16;;;;;;;;;;;;;;;13.75;52.75;99590.63;4983155;28;1051;-51
2023/11/24 09:16:41;;;;;;;;;;;;;;;13.62;52.98;99597.53;4979624;28;1127;-47
2023/11/24 09:19:07;;;;;;;;;;;;;;;13.51;53.19;99580.41;4984834;28;1016;-58
2023/11/24 09:21:33;;;;;;;;;;;;;;;13.49;52.77;99569.75;4992892;28;1172;-54
2023/11/24 09:24:00;;;;;;;;;;;;;;;13.35;52.78;99572.28;4985500;28;1341;-55
2023/11/24 09:26:26;;;;;;;;;;;;;;;13.32;52.57;99564.63;4980377;28;969;-50
2023/11/24 09:28:52;;;;;;;;;;;;;;;13.30;52.60;99566.00;4977393;28;1985;-54
2023/11/24 09:31:17;;;;;;;;;;;;;;;13.34;53.09;99553.44;4980938;28;1073;-51
2023/11/24 09:33:43;;;;;;;;;;;;;;;13.38;52.94;99548.25;4981570;28;1262;-55
2023/11/24 09:36:09;;;;;;;;;;;;;;;13.47;52.96;99538.38;4980842;28;1120;-52
2023/11/24 09:38:35;;;;;;;;;;;;;;;13.34;52.99;99526.94;4986785;28;1160;-51
2023/11/24 09:41:03;;;;;;;;;;;;;;;13.33;53.11;99521.75;4976425;28;1286;-56
2023/11/24 09:43:29;;;;;;;;;;;;;;;13.29;53.00;99516.06;4982330;28;1002;-56
2023/11/24 09:45:56;;;;;;;;;;;;;;;13.30;52.84;99505.94;4978933;28;883;-58
2023/11/24 09:48:22;;;;;;;;;;;;;;;13.31;53.50;99507.59;5006419;28;1985;-55
2023/11/24 09:50:47;;;;;;;;;;;;;;;13.25;53.10;99497.78;4983608;28;1059;-57
2023/11/24 09:53:13;;;;;;;;;;;;;;;13.25;53.42;99489.59;4996208;28;1242;-59
2023/11/24 09:55:42;;;;;;;;;;;;;;;13.26;53.38;99489.34;5008701;28;1104;-64
2023/11/24 09:58:07;;;;;;;;;;;;;;;12.89;54.15;99493.34;4991504;28;918;-63
2023/11/24 10:00:33;;;;;;;;;;;;;;;14.57;58.52;99483.28;4992333;28;1076;-63
2023/11/24 10:02:59;;;;;;;;;;;;;;;15.51;59.13;99478.19;4991602;28;1211;-63
2023/11/24 10:05:29;;;;;;;;;;;;;;;16.13;59.39;99474.44;4999451;28;1091;-62
2023/11/24 10:07:54;;;;;;;;;;;;;;;16.60;59.18;99470.50;4989730;28;1981;-65
2023/11/24 10:10:22;;;;;;;;;;;;;;;16.82;58.95;99459.94;4984591;28;1056;-64
2023/11/24 10:12:48;;;;;;;;;;;;;;;17.16;57.94;99456.72;5000047;28;1083;-67
2023/11/24 10:15:14;;;;;;;;;;;;;;;17.50;56.50;99457.34;4982132;28;1064;-58
2023/11/24 10:17:42;;;;;;;;;;;;;;;16.63;55.66;99452.63;4980972;28;1462;-60
2023/11/24 10:20:11;;;;;;;;;;;;;;;16.84;54.86;99461.25;4998827;28;1016;-56
2023/11/24 10:22:39;;;;;;;;;;;;;;;17.14;55.01;99449.91;4999129;28;928;-58
2023/11/24 10:25:07;;;;;;;;;;;;;;;16.86;52.88;99452.72;4976986;28;1412;-61
2023/11/24 10:27:33;;;;;;;;;;;;;;;16.83;51.17;99450.56;4979546;28;1910;-59
2023/11/24 10:29:58;;;;;;;;;;;;;;;17.36;54.21;99438.97;4980462;28;1159;-58
2023/11/24 10:32:24;;;;;;;;;;;;;;;16.87;53.05;99432.38;4988967;28;1018;-58
2023/11/24 10:34:51;;;;;;;;;;;;;;;16.82;52.13;99441.53;4996756;28;1148;-59
2023/11/24 10:37:20;;;;;;;;;;;;;;;17.47;53.03;99428.53;4997733;28;1013;-61
2023/11/24 10:39:51;;;;;;;;;;;;;;;16.97;55.51;99421.19;4984272;28;1211;-60
2023/11/24 10:42:19;;;;;;;;;;;;;;;19.08;48.68;99410.13;4999121;28;1051;-60
2023/11/24 10:44:44;;;;;;;;;;;;;;;18.51;50.78;99397.22;4984312;28;1089;-65
2023/11/24 10:47:10;;;;;;;;;;;;;;;15.52;57.88;99397.66;4991891;28;1910;-60
2023/11/24 10:49:48;;;;;;;;;;;;;;;18.11;53.64;99398.03;4980233;28;1100;-57
2023/11/24 10:52:22;;;;;;;;;;;;;;;17.97;52.67;99385.53;4992612;28;1126;-59
2023/11/24 10:54:51;;;;;;;;;;;;;;;17.47;51.21;99386.50;4980103;28;1144;-55
2023/11/24 10:57:17;;;;;;;;;;;;;;;17.19;49.78;99381.13;5010621;28;1222;-56
2023/11/24 10:59:42;;;;;;;;;;;;;;;17.13;48.45;99372.22;4988834;28;1133;-56
2023/11/24 11:02:08;;;;;;;;;;;;;;;17.03;47.69;99378.75;4998312;28;1067;-55
2023/11/24 11:04:35;;;;;;;;;;;;;;;17.56;50.37;99370.91;4999145;28;1142;-56
2023/11/24 11:07:04;;;;;;;;;;;;;;;17.49;51.00;99376.00;4986605;28;1215;-58
2023/11/24 11:09:30;;;;;;;;;;;;;;;16.89;50.89;99372.50;4982073;28;1191;-55
2023/11/24 11:12:19;;;;;;;;;;;;;;;16.79;50.15;99353.47;5007734;28;1196;-57
2023/11/24 11:14:45;;;;;;;;;;;;;;;17.05;48.52;99349.03;4986013;28;1290;-55
2023/11/24 11:17:23;;;;;;;;;;;;;;;16.85;48.23;99355.00;4986859;28;1032;-57
2023/11/24 11:20:15;;;;;;;;;;;;;;;16.97;47.09;99346.22;4987021;28;1000;-57
2023/11/24 11:22:42;;;;;;;;;;;;;;;17.59;50.86;99354.56;4989842;28;1151;-58
2023/11/24 11:25:18;;;;;;;;;;;;;;;16.95;50.45;99349.28;4990702;28;1168;-58
2023/11/24 11:27:45;;;;;;;;;;;;;;;16.64;49.46;99343.69;4998795;28;1973;-59
2023/11/24 11:30:17;;;;;;;;;;;;;;;16.45;48.91;99346.56;4998974;28;1162;-58
2023/11/24 11:32:42;;;;;;;;;;;;;;;16.46;47.71;99338.00;4998639;28;1079;-57
2023/11/24 11:35:10;;;;;;;;;;;;;;;17.40;49.89;99341.06;4995361;28;923;-54
2023/11/24 11:37:36;;;;;;;;;;;;;;;17.02;49.22;99326.91;4966892;28;1049;-55
2023/11/24 11:40:11;;;;;;;;;;;;;;;16.83;48.12;99327.84;4991976;28;1210;-55
2023/11/24 11:42:52;;;;;;;;;;;;;;;16.75;47.30;99315.66;4979186;28;1060;-55
2023/11/24 11:45:21;;;;;;;;;;;;;;;17.23;49.09;99316.22;4992072;28;1029;-56
2023/11/24 11:47:50;;;;;;;;;;;;;;;16.93;48.13;99322.16;4979483;28;1882;-56
2023/11/24 11:50:21;;;;;;;;;;;;;;;17.60;49.87;99322.41;4991221;28;1168;-57
2023/11/24 11:52:48;;;;;;;;;;;;;;;16.99;51.75;99316.53;4991606;28;1122;-51
2023/11/24 11:55:16;;;;;;;;;;;;;;;17.65;49.95;99316.75;4979289;28;1048;-56
2023/11/24 11:57:42;;;;;;;;;;;;;;;17.90;49.27;99306.19;4992836;28;1055;-55
2023/11/24 12:00:09;;;;;;;;;;;;;;;18.91;46.70;99308.19;4996554;28;977;-53
2023/11/24 12:02:34;;;;;;;;;;;;;;;19.02;46.28;99312.22;4978673;28;1139;-55
2023/11/24 12:05:00;;;;;;;;;;;;;;;18.01;48.93;99302.06;4980315;28;1157;-57
2023/11/24 12:07:26;;;;;;;;;;;;;;;17.77;49.40;99302.44;4997994;28;1937;-56
2023/11/24 12:09:51;;;;;;;;;;;;;;;19.06;46.50;99301.38;4984459;28;1152;-55
2023/11/24 12:12:17;;;;;;;;;;;;;;;18.24;48.57;99299.19;4978575;28;1151;-56
2023/11/24 12:14:43;;;;;;;;;;;;;;;18.86;47.05;99291.78;4991444;28;1231;-56
2023/11/24 12:17:10;;;;;;;;;;;;;;;18.24;49.88;99293.69;4978279;28;1100;-56
2023/11/24 12:19:35;;;;;;;;;;;;;;;17.54;50.54;99285.97;4979397;28;1080;-60
2023/11/24 12:22:03;;;;;;;;;;;;;;;17.76;48.77;99292.56;4993287;28;1176;-56
2023/11/24 12:24:29;;;;;;;;;;;;;;;17.72;47.55;99277.81;4989954;28;1106;-57
2023/11/24 12:26:57;;;;;;;;;;;;;;;17.54;46.65;99276.94;4988481;28;1504;-56
2023/11/24 12:29:26;;;;;;;;;;;;;;;17.46;45.78;99281.28;4991203;28;1910;-54
2023/11/24 12:31:53;;;;;;;;;;;;;;;17.32;45.56;99272.31;4978341;28;1049;-53
2023/11/24 12:34:20;;;;;;;;;;;;;;;17.18;45.42;99283.38;4979600;28;1079;-56
2023/11/24 12:36:46;;;;;;;;;;;;;;;17.88;46.80;99289.19;4987983;28;1362;-56
2023/11/24 12:39:13;;;;;;;;;;;;;;;17.60;47.71;99286.69;4984150;28;1207;-57
2023/11/24 12:41:43;;;;;;;;;;;;;;;17.23;46.93;99280.50;4996806;28;1190;-58
2023/11/24 12:44:09;;;;;;;;;;;;;;;17.19;46.16;99276.75;4997513;28;1096;-56
2023/11/24 12:46:34;;;;;;;;;;;;;;;17.89;47.33;99288.06;4995003;28;1087;-58
2023/11/24 12:49:00;;;;;;;;;;;;;;;17.51;47.69;99283.06;4983710;28;1906;-55
2023/11/24 12:51:26;;;;;;;;;;;;;;;17.31;46.75;99276.19;4988367;28;1142;-56